Time;durP1;ratioP1;P1;durP2;ratioP2;P2;SDS_P1;SDS_P2;PMS_P1;PMS_P2;Temp;Humidity;BMP_temperature;BMP_pressure;BME280_temperature;BME280_humidity;BME280_pressure;Samples;Min_cycle;Max_cycle;Signal;HPM_P1;HPM_P2
2024/04/09 00:02:45;;;;;;;31.25;6.38;;;;;;;;;;4951090;28;20184;-92
2024/04/09 00:05:54;;;;;;;34.80;6.35;;;;;;;;;;4941356;29;20233;-92
2024/04/09 00:09:00;;;;;;;36.40;7.43;;;;;;;;;;4932263;29;20204;-93
2024/04/09 00:12:07;;;;;;;36.63;6.70;;;;;;;;;;4932250;29;20229;-91
2024/04/09 00:15:12;;;;;;;24.67;6.43;;;;;;;;;;4931901;28;20215;-92
2024/04/09 00:18:17;;;;;;;27.42;6.57;;;;;;;;;;4932263;29;20192;-92
2024/04/09 00:21:24;;;;;;;26.42;6.00;;;;;;;;;;4932261;29;20264;-92
2024/04/09 00:24:31;;;;;;;30.20;6.28;;;;;;;;;;4930770;28;20208;-92
2024/04/09 00:27:36;;;;;;;35.53;5.63;;;;;;;;;;4929428;29;20200;-92
2024/04/09 00:30:44;;;;;;;28.33;5.20;;;;;;;;;;4934863;29;20231;-93
2024/04/09 00:33:49;;;;;;;36.35;5.70;;;;;;;;;;4946696;29;20549;-91
2024/04/09 00:36:56;;;;;;;24.02;5.80;;;;;;;;;;4931952;29;20235;-91
2024/04/09 00:40:00;;;;;;;27.30;6.57;;;;;;;;;;4932611;29;20192;-92
2024/04/09 00:43:05;;;;;;;33.58;6.30;;;;;;;;;;4932295;29;20187;-90
2024/04/09 00:46:11;;;;;;;29.85;6.05;;;;;;;;;;4932242;29;20176;-91
2024/04/09 00:49:19;;;;;;;31.27;5.68;;;;;;;;;;4932438;29;20175;-91
2024/04/09 00:52:29;;;;;;;30.33;6.05;;;;;;;;;;4932251;29;20192;-91
2024/04/09 00:55:35;;;;;;;36.65;6.10;;;;;;;;;;4937168;29;20199;-91
2024/04/09 00:58:41;;;;;;;23.80;5.50;;;;;;;;;;4947663;29;20191;-91
2024/04/09 01:01:46;;;;;;;31.83;5.65;;;;;;;;;;4949288;28;20179;-91
2024/04/09 01:04:54;;;;;;;28.45;5.90;;;;;;;;;;4939328;28;20207;-92
2024/04/09 01:08:00;;;;;;;37.65;5.78;;;;;;;;;;4951113;29;20195;-93
2024/04/09 01:11:05;;;;;;;32.92;6.90;;;;;;;;;;4950975;28;20227;-91
2024/04/09 01:14:09;;;;;;;32.30;6.13;;;;;;;;;;4949710;28;20186;-91
2024/04/09 01:17:15;;;;;;;30.80;6.25;;;;;;;;;;4931732;29;20204;-92
2024/04/09 01:20:19;;;;;;;32.17;5.97;;;;;;;;;;4941362;28;20276;-91
2024/04/09 01:27:00;;;;;;;30.77;5.22;;;;;;;;;;4932064;29;20211;-91
2024/04/09 01:30:05;;;;;;;35.85;6.35;;;;;;;;;;4946318;28;20223;-92
2024/04/09 01:33:11;;;;;;;25.58;5.72;;;;;;;;;;4948360;28;20251;-91
2024/04/09 01:36:15;;;;;;;31.83;6.57;;;;;;;;;;4949220;28;20187;-93
2024/04/09 01:39:22;;;;;;;26.17;6.20;;;;;;;;;;4947890;28;20227;-91
2024/04/09 01:42:28;;;;;;;34.28;6.03;;;;;;;;;;4929049;29;20317;-92
2024/04/09 01:45:33;;;;;;;26.85;6.07;;;;;;;;;;4948323;28;20261;-91
2024/04/09 01:48:37;;;;;;;32.25;6.60;;;;;;;;;;4948734;28;20187;-93
2024/04/09 01:51:43;;;;;;;30.52;6.93;;;;;;;;;;4948250;28;20199;-91
2024/04/09 01:54:47;;;;;;;30.35;6.82;;;;;;;;;;4947744;28;20207;-91
2024/04/09 01:57:54;;;;;;;23.17;5.45;;;;;;;;;;4929490;29;20189;-90
2024/04/09 02:00:59;;;;;;;30.52;6.50;;;;;;;;;;4930893;29;20211;-91
2024/04/09 02:04:03;;;;;;;26.40;6.30;;;;;;;;;;4933522;28;20195;-91
2024/04/09 02:07:08;;;;;;;34.88;6.65;;;;;;;;;;4929487;29;20215;-91
2024/04/09 02:10:13;;;;;;;35.45;6.60;;;;;;;;;;4927689;29;20250;-90
2024/04/09 02:13:19;;;;;;;23.63;5.82;;;;;;;;;;4929562;29;20223;-90
2024/04/09 02:16:26;;;;;;;32.72;6.43;;;;;;;;;;4949464;28;20210;-92
2024/04/09 02:19:31;;;;;;;29.30;5.75;;;;;;;;;;4927974;29;20267;-92
2024/04/09 02:22:36;;;;;;;37.10;6.13;;;;;;;;;;4927707;29;20199;-91
2024/04/09 02:25:41;;;;;;;29.95;5.53;;;;;;;;;;4928185;29;20208;-91
2024/04/09 02:28:47;;;;;;;29.67;5.50;;;;;;;;;;4927692;29;20200;-91
2024/04/09 02:31:58;;;;;;;39.83;7.00;;;;;;;;;;4930417;29;20297;-93
2024/04/09 02:35:04;;;;;;;24.88;5.60;;;;;;;;;;4937143;28;20472;-91
2024/04/09 02:38:09;;;;;;;29.60;6.20;;;;;;;;;;4946991;28;20203;-93
2024/04/09 02:41:14;;;;;;;27.77;5.78;;;;;;;;;;4947808;28;20183;-92
2024/04/09 02:44:21;;;;;;;31.52;6.65;;;;;;;;;;4946457;28;20191;-93
2024/04/09 02:47:25;;;;;;;31.50;5.80;;;;;;;;;;4947186;28;20191;-92
2024/04/09 02:50:30;;;;;;;29.33;5.80;;;;;;;;;;4947791;29;20257;-92
2024/04/09 02:53:36;;;;;;;41.35;5.57;;;;;;;;;;4948055;29;20203;-93
2024/04/09 02:56:41;;;;;;;26.63;5.50;;;;;;;;;;4950873;28;20175;-91
2024/04/09 02:59:47;;;;;;;25.65;5.40;;;;;;;;;;4949247;28;20198;-92
2024/04/09 03:02:52;;;;;;;27.20;5.22;;;;;;;;;;4950933;28;20187;-93
2024/04/09 03:05:57;;;;;;;24.95;5.80;;;;;;;;;;4950919;28;20183;-91
2024/04/09 03:09:02;;;;;;;27.80;5.47;;;;;;;;;;4950524;28;20191;-91
2024/04/09 03:12:08;;;;;;;26.63;4.93;;;;;;;;;;4941440;29;20199;-91
2024/04/09 03:15:13;;;;;;;31.52;6.03;;;;;;;;;;4936298;29;20219;-91
2024/04/09 03:18:19;;;;;;;30.73;5.57;;;;;;;;;;4932267;29;20196;-91
2024/04/09 03:21:23;;;;;;;33.47;5.47;;;;;;;;;;4937451;29;20198;-90
2024/04/09 03:24:28;;;;;;;27.13;5.97;;;;;;;;;;4951218;28;20604;-90
2024/04/09 03:27:32;;;;;;;20.42;5.40;;;;;;;;;;4950459;28;20187;-92
2024/04/09 03:30:40;;;;;;;22.35;5.60;;;;;;;;;;4951584;28;20235;-91
2024/04/09 03:33:44;;;;;;;25.73;5.78;;;;;;;;;;4932861;29;20269;-91
2024/04/09 03:36:50;;;;;;;38.20;6.25;;;;;;;;;;4933577;29;20252;-92
2024/04/09 03:39:57;;;;;;;32.15;6.00;;;;;;;;;;4932678;29;20200;-92
2024/04/09 03:43:02;;;;;;;25.42;5.68;;;;;;;;;;4932681;29;20656;-91
2024/04/09 03:46:11;;;;;;;32.47;5.82;;;;;;;;;;4932556;29;20269;-92
2024/04/09 03:49:15;;;;;;;20.55;5.25;;;;;;;;;;4933668;29;20192;-92
2024/04/09 03:52:21;;;;;;;36.08;5.82;;;;;;;;;;4932040;29;20192;-93
2024/04/09 03:55:26;;;;;;;30.55;6.75;;;;;;;;;;4934090;29;20216;-92
2024/04/09 03:58:35;;;;;;;28.27;5.82;;;;;;;;;;4933887;29;20179;-91
2024/04/09 04:01:42;;;;;;;33.17;6.43;;;;;;;;;;4941736;29;20495;-92
2024/04/09 04:04:48;;;;;;;36.40;6.25;;;;;;;;;;4950036;28;20207;-91
2024/04/09 04:07:52;;;;;;;21.42;4.68;;;;;;;;;;4950457;28;20195;-92
2024/04/09 04:10:58;;;;;;;20.75;5.47;;;;;;;;;;4950776;28;20251;-93
2024/04/09 04:14:03;;;;;;;24.50;5.85;;;;;;;;;;4931225;29;20199;-92
2024/04/09 04:17:09;;;;;;;25.48;5.50;;;;;;;;;;4930290;29;20199;-92
2024/04/09 04:20:14;;;;;;;28.15;6.45;;;;;;;;;;4930627;29;20212;-91
2024/04/09 04:23:18;;;;;;;37.10;7.22;;;;;;;;;;4931010;29;20196;-92
2024/04/09 04:26:25;;;;;;;28.45;5.53;;;;;;;;;;4932384;29;20200;-92
2024/04/09 04:29:29;;;;;;;30.67;5.93;;;;;;;;;;4950235;28;20244;-93
2024/04/09 04:32:36;;;;;;;28.85;7.15;;;;;;;;;;4949234;28;20247;-92
2024/04/09 04:35:41;;;;;;;29.85;5.95;;;;;;;;;;4942679;28;20204;-92
2024/04/09 04:38:46;;;;;;;33.70;6.65;;;;;;;;;;4938837;28;20207;-91
2024/04/09 04:41:51;;;;;;;40.08;6.03;;;;;;;;;;4946540;29;20268;-93
2024/04/09 04:44:55;;;;;;;22.38;5.00;;;;;;;;;;4942368;28;20230;-92
2024/04/09 04:48:08;;;;;;;29.52;6.63;;;;;;;;;;4950336;29;20227;-93
2024/04/09 04:51:13;;;;;;;21.52;6.05;;;;;;;;;;4949112;29;20684;-92
2024/04/09 04:54:18;;;;;;;33.10;6.20;;;;;;;;;;4950199;29;20231;-91
2024/04/09 04:57:25;;;;;;;26.50;6.10;;;;;;;;;;4941856;28;20263;-92
2024/04/09 05:00:29;;;;;;;30.65;6.43;;;;;;;;;;4944437;28;20594;-90
2024/04/09 05:07:00;;;;;;;36.40;7.47;;;;;;;;;;4947379;28;20354;-91
2024/04/09 05:10:04;;;;;;;32.47;5.75;;;;;;;;;;4948449;28;20277;-91
2024/04/09 05:13:09;;;;;;;27.88;6.50;;;;;;;;;;4947353;28;20206;-92
2024/04/09 05:16:15;;;;;;;32.20;7.85;;;;;;;;;;4947704;29;20219;-91
2024/04/09 05:19:34;;;;;;;31.33;6.80;;;;;;;;;;4951437;28;20183;-87
2024/04/09 05:22:44;;;;;;;29.00;6.53;;;;;;;;;;4950368;28;20187;-89
2024/04/09 05:25:49;;;;;;;25.58;5.88;;;;;;;;;;4949694;28;20199;-91
2024/04/09 05:28:55;;;;;;;24.75;6.32;;;;;;;;;;4929686;29;20191;-91
2024/04/09 05:31:59;;;;;;;33.38;5.95;;;;;;;;;;4926949;29;20204;-92
2024/04/09 05:35:05;;;;;;;23.80;6.10;;;;;;;;;;4929496;29;20199;-91
2024/04/09 05:38:14;;;;;;;37.70;6.32;;;;;;;;;;4930894;29;20188;-92
2024/04/09 05:41:20;;;;;;;32.20;6.25;;;;;;;;;;4930409;29;20771;-92
2024/04/09 05:44:25;;;;;;;26.65;5.97;;;;;;;;;;4929761;29;20225;-90
2024/04/09 05:47:30;;;;;;;32.75;5.80;;;;;;;;;;4928363;29;20188;-90
2024/04/09 05:50:35;;;;;;;27.70;6.50;;;;;;;;;;4927900;28;20198;-92
2024/04/09 05:53:41;;;;;;;24.33;5.55;;;;;;;;;;4936985;29;20203;-90
2024/04/09 05:56:47;;;;;;;31.95;6.45;;;;;;;;;;4947180;29;20339;-92
2024/04/09 05:59:52;;;;;;;27.33;5.80;;;;;;;;;;4930998;29;20239;-91
2024/04/09 06:02:58;;;;;;;25.42;6.65;;;;;;;;;;4929347;29;20184;-90
2024/04/09 06:06:03;;;;;;;32.35;5.97;;;;;;;;;;4929467;29;20180;-91
2024/04/09 06:09:10;;;;;;;32.63;7.53;;;;;;;;;;4927308;29;20248;-91
2024/04/09 06:12:15;;;;;;;26.08;6.45;;;;;;;;;;4927251;29;20251;-91
2024/04/09 06:15:22;;;;;;;18.55;5.88;;;;;;;;;;4929492;29;20219;-91
2024/04/09 06:18:29;;;;;;;23.42;5.75;;;;;;;;;;4927353;29;20192;-92
2024/04/09 06:21:47;;;;;;;29.85;6.03;;;;;;;;;;4930554;29;20223;-91
2024/04/09 06:24:52;;;;;;;26.40;5.85;;;;;;;;;;4929983;29;20172;-91
2024/04/09 06:28:00;;;;;;;34.35;5.78;;;;;;;;;;4928932;29;20236;-91
2024/04/09 08:38:22;;;;;;;14.00;3.67;;;;;;;;;;5620254;23;20280;-91
2024/04/09 08:41:28;;;;;;;24.08;3.95;;;;;;;;;;4948318;28;20294;-93
2024/04/09 08:44:39;;;;;;;20.15;3.95;;;;;;;;;;4949163;28;20200;-93
2024/04/09 08:47:44;;;;;;;14.75;4.70;;;;;;;;;;4946973;28;20227;-93
2024/04/09 08:50:50;;;;;;;16.08;4.30;;;;;;;;;;4946382;29;20230;-92
2024/04/09 08:53:58;;;;;;;20.50;4.00;;;;;;;;;;4947855;28;20200;-91
2024/04/09 08:57:05;;;;;;;23.75;4.20;;;;;;;;;;4947647;28;20188;-92
2024/04/09 09:00:09;;;;;;;14.50;3.70;;;;;;;;;;4949216;28;20320;-93
2024/04/09 09:03:15;;;;;;;12.65;3.55;;;;;;;;;;4949442;28;20259;-90
2024/04/09 09:06:19;;;;;;;14.35;3.53;;;;;;;;;;4949813;28;20173;-94
2024/04/09 09:09:27;;;;;;;10.50;3.30;;;;;;;;;;4947672;28;20181;-92
2024/04/09 09:12:30;;;;;;;11.73;3.47;;;;;;;;;;4948212;29;20228;-95
2024/04/09 09:15:36;;;;;;;16.10;3.40;;;;;;;;;;4947049;28;20191;-92
2024/04/09 09:18:40;;;;;;;14.77;3.90;;;;;;;;;;4947419;29;20186;-93
2024/04/09 09:21:45;;;;;;;12.18;3.30;;;;;;;;;;4948956;28;20194;-94
2024/04/09 09:24:59;;;;;;;10.48;3.60;;;;;;;;;;4951730;28;20202;-92
2024/04/09 09:28:07;;;;;;;10.65;3.35;;;;;;;;;;4948124;28;20677;-95
2024/04/09 09:31:11;;;;;;;17.73;3.78;;;;;;;;;;4947948;29;20330;-93
2024/04/09 09:34:17;;;;;;;16.48;3.33;;;;;;;;;;4946714;29;20186;-93
2024/04/09 09:37:22;;;;;;;9.02;3.58;;;;;;;;;;4946840;29;20194;-95
2024/04/09 09:40:42;;;;;;;10.93;3.10;;;;;;;;;;4948612;29;20194;-92
2024/04/09 09:43:48;;;;;;;13.20;3.13;;;;;;;;;;4946018;28;20233;-93
2024/04/09 09:46:53;;;;;;;7.63;2.90;;;;;;;;;;4946307;28;20247;-94
2024/04/09 09:49:58;;;;;;;11.68;2.92;;;;;;;;;;4948861;29;20563;-93
2024/04/09 09:53:03;;;;;;;6.00;2.97;;;;;;;;;;4946538;29;20187;-92
2024/04/09 09:56:08;;;;;;;10.50;3.05;;;;;;;;;;4952423;28;20182;-95
2024/04/09 09:59:21;;;;;;;16.55;2.78;;;;;;;;;;4951268;28;20234;-95
2024/04/09 10:05:50;;;;;;;10.00;3.00;;;;;;;;;;4949412;28;20210;-89
2024/04/09 10:08:56;;;;;;;8.48;2.88;;;;;;;;;;4947303;28;20666;-93
2024/04/09 10:12:01;;;;;;;7.07;2.78;;;;;;;;;;4946759;28;20354;-92
2024/04/09 10:15:08;;;;;;;9.68;2.70;;;;;;;;;;4947495;28;20208;-92
2024/04/09 10:18:27;;;;;;;11.88;3.00;;;;;;;;;;4947589;28;20183;-94
2024/04/09 10:24:52;;;;;;;10.25;2.90;;;;;;;;;;4946980;28;20190;-93
2024/04/09 10:28:02;;;;;;;9.00;3.00;;;;;;;;;;4946773;28;20264;-93
2024/04/09 10:31:09;;;;;;;10.93;2.95;;;;;;;;;;4947242;28;20210;-93
2024/04/09 10:34:23;;;;;;;19.35;4.13;;;;;;;;;;4948110;28;20206;-91
2024/04/09 10:37:28;;;;;;;13.95;3.22;;;;;;;;;;4948431;28;20265;-91
2024/04/09 10:40:34;;;;;;;9.98;2.97;;;;;;;;;;4949130;28;20199;-92
2024/04/09 10:43:41;;;;;;;7.82;2.40;;;;;;;;;;4948551;28;20310;-93
2024/04/09 10:46:46;;;;;;;20.25;3.30;;;;;;;;;;4949076;29;20191;-92
2024/04/09 10:49:52;;;;;;;9.40;2.88;;;;;;;;;;4948828;28;20222;-91
2024/04/09 10:52:58;;;;;;;11.43;3.00;;;;;;;;;;4947901;28;20222;-93
2024/04/09 10:56:03;;;;;;;9.65;2.50;;;;;;;;;;4946840;29;20174;-94
2024/04/09 10:59:14;;;;;;;12.55;2.80;;;;;;;;;;4946858;28;20221;-93
2024/04/09 11:02:19;;;;;;;11.95;2.75;;;;;;;;;;4947456;29;20206;-94
2024/04/09 11:05:25;;;;;;;12.02;3.28;;;;;;;;;;4947772;29;20291;-92
2024/04/09 11:08:33;;;;;;;18.42;3.10;;;;;;;;;;4946312;29;20198;-94
2024/04/09 11:11:40;;;;;;;14.07;3.40;;;;;;;;;;4947347;29;20317;-93
2024/04/09 11:14:47;;;;;;;10.60;2.67;;;;;;;;;;4947465;28;20834;-93
2024/04/09 11:17:53;;;;;;;16.45;2.97;;;;;;;;;;4952066;28;20202;-93
2024/04/09 11:20:59;;;;;;;8.57;2.42;;;;;;;;;;4950267;28;20215;-95
2024/04/09 11:24:04;;;;;;;12.13;3.00;;;;;;;;;;4949885;28;20198;-94
2024/04/09 11:27:10;;;;;;;21.15;3.40;;;;;;;;;;4940829;29;20195;-93
2024/04/09 11:30:22;;;;;;;18.50;3.28;;;;;;;;;;4930714;29;20239;-95
2024/04/09 11:33:29;;;;;;;16.65;3.17;;;;;;;;;;4930459;29;20755;-94
2024/04/09 11:36:36;;;;;;;16.70;3.55;;;;;;;;;;4931007;29;20195;-95
2024/04/09 11:39:46;;;;;;;14.55;3.42;;;;;;;;;;4934520;29;20222;-95
2024/04/09 11:42:51;;;;;;;15.52;2.95;;;;;;;;;;4936239;29;20277;-95
2024/04/09 11:45:59;;;;;;;23.65;4.40;;;;;;;;;;4930248;29;20210;-95
2024/04/09 11:49:08;;;;;;;17.20;3.05;;;;;;;;;;4936363;29;20223;-92
2024/04/09 11:52:13;;;;;;;19.05;3.10;;;;;;;;;;4942705;29;20239;-94
2024/04/09 11:55:19;;;;;;;19.42;3.42;;;;;;;;;;4956247;29;20174;-95
2024/04/09 11:58:26;;;;;;;25.80;3.60;;;;;;;;;;4955365;28;20195;-94
2024/04/09 12:01:32;;;;;;;22.42;3.33;;;;;;;;;;4957821;29;20191;-95
2024/04/09 12:04:44;;;;;;;26.70;3.72;;;;;;;;;;4956974;28;20190;-94
2024/04/09 12:07:50;;;;;;;21.45;3.38;;;;;;;;;;4956196;29;20243;-95
2024/04/09 12:10:54;;;;;;;21.25;3.17;;;;;;;;;;4957762;28;20205;-95
2024/04/09 15:30:35;;;;;;;24.38;3.20;;;;;;;;;;5501792;23;20243;-93
2024/04/09 18:54:53;;;;;;;3.78;0.80;;;;;;;;;;4956339;23;20302;-91
2024/04/09 18:57:58;;;;;;;3.75;1.05;;;;;;;;;;4959170;29;20605;-91
2024/04/09 19:01:06;;;;;;;2.45;1.02;;;;;;;;;;4951015;28;20288;-91
2024/04/09 19:04:10;;;;;;;7.03;1.25;;;;;;;;;;4951073;28;20171;-93
2024/04/09 19:07:15;;;;;;;6.40;1.08;;;;;;;;;;4948680;28;20204;-93
2024/04/09 19:10:21;;;;;;;3.00;0.80;;;;;;;;;;4947893;28;20247;-92
2024/04/09 19:13:27;;;;;;;2.70;1.08;;;;;;;;;;4949955;28;20289;-93
2024/04/09 19:16:31;;;;;;;3.33;0.80;;;;;;;;;;4949659;28;20199;-92
2024/04/09 19:19:38;;;;;;;2.95;0.80;;;;;;;;;;4949194;28;20167;-92
2024/04/09 19:22:43;;;;;;;2.38;1.15;;;;;;;;;;4947919;28;20211;-90
2024/04/09 19:25:48;;;;;;;3.42;1.33;;;;;;;;;;4948220;28;20219;-92
2024/04/09 19:28:54;;;;;;;1.98;1.00;;;;;;;;;;4947771;28;20476;-90
2024/04/09 19:32:03;;;;;;;3.33;0.93;;;;;;;;;;4946065;28;20212;-91
2024/04/09 19:35:08;;;;;;;3.30;0.90;;;;;;;;;;4948357;28;20266;-90
2024/04/09 19:38:13;;;;;;;1.52;0.85;;;;;;;;;;4950653;28;20188;-91
2024/04/09 19:41:20;;;;;;;3.28;1.02;;;;;;;;;;4948794;28;20199;-92
2024/04/09 19:44:26;;;;;;;3.40;1.05;;;;;;;;;;4947264;28;20187;-92
2024/04/09 19:47:32;;;;;;;3.72;1.23;;;;;;;;;;4948344;28;20231;-92
2024/04/09 19:50:37;;;;;;;3.67;0.93;;;;;;;;;;4949497;28;20564;-90
2024/04/09 19:53:41;;;;;;;2.65;0.90;;;;;;;;;;4948398;28;20741;-92
2024/04/09 19:56:47;;;;;;;1.95;0.77;;;;;;;;;;4948483;28;20236;-92
2024/04/09 19:59:52;;;;;;;4.70;0.70;;;;;;;;;;4948619;28;20857;-92
2024/04/09 20:02:57;;;;;;;4.00;1.17;;;;;;;;;;4946737;28;20215;-92
2024/04/09 20:06:01;;;;;;;2.22;1.00;;;;;;;;;;4949173;28;20208;-90
2024/04/09 20:09:07;;;;;;;6.72;0.90;;;;;;;;;;4947388;28;20223;-92
2024/04/09 20:12:12;;;;;;;3.38;1.05;;;;;;;;;;4950504;29;20206;-90
2024/04/09 20:15:18;;;;;;;2.65;0.90;;;;;;;;;;4947458;29;20579;-91
2024/04/09 20:18:24;;;;;;;3.83;0.80;;;;;;;;;;4947805;28;20215;-92
2024/04/09 20:21:29;;;;;;;3.67;0.88;;;;;;;;;;4946867;28;20199;-91
2024/04/09 20:24:35;;;;;;;3.42;0.88;;;;;;;;;;4947399;28;20659;-93
2024/04/09 20:27:40;;;;;;;4.93;1.20;;;;;;;;;;4947104;28;20200;-91
2024/04/09 20:30:46;;;;;;;6.05;0.80;;;;;;;;;;4946547;28;20211;-90
2024/04/09 20:33:50;;;;;;;1.50;0.77;;;;;;;;;;4946356;28;20370;-92
2024/04/09 20:36:56;;;;;;;4.35;1.08;;;;;;;;;;4949509;29;20211;-91
2024/04/09 20:40:03;;;;;;;4.32;1.10;;;;;;;;;;4949898;29;20199;-91
2024/04/09 20:43:09;;;;;;;11.35;1.27;;;;;;;;;;4946953;28;20259;-92
2024/04/09 20:46:14;;;;;;;3.42;0.90;;;;;;;;;;4947602;28;20191;-92
2024/04/09 20:49:18;;;;;;;3.60;0.90;;;;;;;;;;4949021;28;20256;-92
2024/04/09 20:52:24;;;;;;;2.25;0.95;;;;;;;;;;4949295;28;20305;-89
2024/04/09 20:55:28;;;;;;;3.83;1.00;;;;;;;;;;4949429;28;20282;-90
2024/04/09 20:58:35;;;;;;;2.55;1.02;;;;;;;;;;4949752;28;20199;-92
2024/04/09 21:01:40;;;;;;;5.00;1.23;;;;;;;;;;4947645;28;20174;-90
2024/04/09 21:04:48;;;;;;;4.30;1.17;;;;;;;;;;4948898;28;20234;-91
2024/04/09 21:07:52;;;;;;;3.65;0.88;;;;;;;;;;4952434;28;20272;-90
2024/04/09 21:10:57;;;;;;;3.42;1.25;;;;;;;;;;4952000;28;20230;-92
2024/04/09 21:14:04;;;;;;;2.38;1.20;;;;;;;;;;4948371;29;20207;-92
2024/04/09 21:17:09;;;;;;;4.45;0.98;;;;;;;;;;4949877;28;20220;-92
2024/04/09 21:20:13;;;;;;;4.13;1.45;;;;;;;;;;4947404;28;20355;-92
2024/04/09 21:23:18;;;;;;;1.33;0.80;;;;;;;;;;4946538;28;20814;-92
2024/04/09 21:26:23;;;;;;;2.15;1.10;;;;;;;;;;4946478;29;20264;-91
2024/04/09 21:29:30;;;;;;;4.60;1.08;;;;;;;;;;4937254;29;20233;-90
2024/04/09 21:32:34;;;;;;;5.28;1.30;;;;;;;;;;4932815;29;20203;-91
2024/04/09 21:35:41;;;;;;;2.92;1.10;;;;;;;;;;4942702;28;20313;-90
2024/04/09 21:38:49;;;;;;;6.97;1.23;;;;;;;;;;4947670;28;20183;-92
2024/04/09 21:41:54;;;;;;;6.28;1.08;;;;;;;;;;4937731;29;20218;-93
2024/04/09 21:45:00;;;;;;;5.45;0.95;;;;;;;;;;4947969;29;20202;-93
2024/04/09 21:48:06;;;;;;;4.93;1.17;;;;;;;;;;4928362;29;20655;-92
2024/04/09 21:51:10;;;;;;;1.98;1.00;;;;;;;;;;4935420;29;20274;-93
2024/04/09 21:54:16;;;;;;;2.92;1.02;;;;;;;;;;4948097;28;20302;-88
2024/04/09 21:57:24;;;;;;;5.03;1.05;;;;;;;;;;4936366;29;20206;-89
2024/04/09 22:00:34;;;;;;;1.13;0.88;;;;;;;;;;4947160;29;20222;-91
2024/04/09 22:03:38;;;;;;;6.28;1.05;;;;;;;;;;4947174;28;20815;-90
2024/04/09 22:06:43;;;;;;;3.33;1.33;;;;;;;;;;4948541;28;20564;-92
2024/04/09 22:09:49;;;;;;;5.28;1.13;;;;;;;;;;4999122;23;20335;-93
2024/04/09 22:12:59;;;;;;;3.15;1.20;;;;;;;;;;4935585;28;20190;-91
2024/04/09 22:16:08;;;;;;;2.80;1.30;;;;;;;;;;4930995;29;20203;-93
2024/04/09 22:19:15;;;;;;;3.05;0.90;;;;;;;;;;4931227;29;20292;-92
2024/04/09 22:22:20;;;;;;;2.88;1.30;;;;;;;;;;4941436;28;20199;-91
2024/04/09 22:28:52;;;;;;;2.42;1.30;;;;;;;;;;4929686;29;20315;-92
2024/04/09 22:31:57;;;;;;;3.63;1.30;;;;;;;;;;4927624;29;20200;-93
2024/04/09 22:35:03;;;;;;;3.22;1.77;;;;;;;;;;4929058;29;20204;-90
2024/04/09 22:38:08;;;;;;;3.55;1.48;;;;;;;;;;4930534;29;20196;-91
2024/04/09 22:41:13;;;;;;;6.03;1.35;;;;;;;;;;4929741;29;20189;-91
2024/04/09 22:44:17;;;;;;;3.88;1.50;;;;;;;;;;4929184;29;20311;-93
2024/04/09 22:47:24;;;;;;;3.45;1.00;;;;;;;;;;4929192;29;20200;-94
2024/04/09 22:50:28;;;;;;;2.65;1.30;;;;;;;;;;4929474;29;20259;-91
2024/04/09 22:53:35;;;;;;;3.55;0.88;;;;;;;;;;4909633;29;20668;-91
2024/04/09 22:56:40;;;;;;;3.67;1.10;;;;;;;;;;4927763;29;20199;-93
2024/04/09 22:59:45;;;;;;;3.25;1.08;;;;;;;;;;4910538;29;20209;-91
2024/04/09 23:02:52;;;;;;;3.83;0.98;;;;;;;;;;4902690;29;20222;-93
2024/04/09 23:05:59;;;;;;;6.53;1.20;;;;;;;;;;4960771;23;20247;-92
2024/04/09 23:09:06;;;;;;;4.45;1.17;;;;;;;;;;4929430;29;20252;-92
2024/04/09 23:12:13;;;;;;;3.30;1.25;;;;;;;;;;4944911;28;20302;-93
2024/04/09 23:15:18;;;;;;;9.98;2.08;;;;;;;;;;4951529;28;20199;-91
2024/04/09 23:18:24;;;;;;;3.70;1.40;;;;;;;;;;4931254;29;20187;-93
2024/04/09 23:21:29;;;;;;;4.38;1.40;;;;;;;;;;4934069;29;20317;-92
2024/04/09 23:24:34;;;;;;;5.40;1.73;;;;;;;;;;4932908;29;20233;-90
2024/04/09 23:27:40;;;;;;;5.13;1.52;;;;;;;;;;4942862;28;20207;-93
2024/04/09 23:30:45;;;;;;;4.90;1.83;;;;;;;;;;4943908;28;20424;-94
2024/04/09 23:33:51;;;;;;;5.05;1.90;;;;;;;;;;4946835;28;20212;-93
2024/04/09 23:36:56;;;;;;;3.15;1.75;;;;;;;;;;4942619;28;20278;-93
2024/04/09 23:40:04;;;;;;;4.78;1.90;;;;;;;;;;4951377;28;20203;-91
2024/04/09 23:43:12;;;;;;;2.65;1.80;;;;;;;;;;4943726;28;20235;-94
2024/04/09 23:46:16;;;;;;;5.82;1.90;;;;;;;;;;4932846;29;20204;-93
2024/04/09 23:49:23;;;;;;;6.13;2.10;;;;;;;;;;4938533;29;20211;-92
2024/04/09 23:52:28;;;;;;;5.20;1.80;;;;;;;;;;4944480;28;20211;-92
2024/04/09 23:55:32;;;;;;;4.72;1.98;;;;;;;;;;4944999;29;20667;-91
2024/04/09 23:58:38;;;;;;;3.45;1.80;;;;;;;;;;4933660;29;20184;-93
